Time;durP1;ratioP1;P1;durP2;ratioP2;P2;SDS_P1;SDS_P2;PMS_P1;PMS_P2;Temp;Humidity;BMP_temperature;BMP_pressure;BME280_temperature;BME280_humidity;BME280_pressure;Samples;Min_cycle;Max_cycle;Signal;HPM_P1;HPM_P2
2021/04/06 15:03:59;;;;;;;;;;;;;;;2.64;58.88;97798.98;114523;1202;103083;-78
2021/04/06 15:06:29;;;;;;;23.90;9.90;;;;;;;2.60;58.20;97802.73;114424;1206;103354;-77
2021/04/06 15:08:57;;;;;;;23.67;10.20;;;;;;;2.62;58.60;97806.97;114439;1206;103082;-77
2021/04/06 15:11:28;;;;;;;25.05;10.15;;;;;;;2.62;58.60;97806.97;114461;1206;103101;-77
2021/04/06 15:13:55;;;;;;;23.10;9.53;;;;;;;2.56;58.75;97804.70;114384;1205;103114;-78
2021/04/06 15:16:22;;;;;;;25.80;10.40;;;;;;;2.52;58.48;97806.66;114470;1206;103085;-77
2021/04/06 15:18:52;;;;;;;24.25;9.25;;;;;;;2.48;58.97;97801.69;114541;1206;103226;-79
2021/04/06 15:21:20;;;;;;;22.75;9.60;;;;;;;2.38;58.64;97798.78;114472;1206;103168;-76
2021/04/06 15:23:48;;;;;;;21.95;9.85;;;;;;;2.34;58.89;97794.65;114457;1206;103101;-76
2021/04/06 15:26:17;;;;;;;24.25;9.60;;;;;;;2.27;59.18;97807.27;114444;1206;103197;-77
2021/04/06 15:28:44;;;;;;;21.95;10.25;;;;;;;2.24;58.76;97815.35;114502;1206;103210;-77
2021/04/06 15:31:14;;;;;;;23.97;11.17;;;;;;;2.16;59.26;97813.16;114503;1206;103207;-77
2021/04/06 15:33:42;;;;;;;26.00;11.00;;;;;;;2.15;59.23;97808.02;114412;1206;103155;-75
2021/04/06 15:36:11;;;;;;;23.93;10.30;;;;;;;2.05;58.99;97812.92;114469;1205;103095;-77
2021/04/06 15:38:38;;;;;;;19.50;8.10;;;;;;;1.87;58.83;97815.70;114446;1206;103507;-75
2021/04/06 15:41:12;;;;;;;20.87;8.70;;;;;;;1.77;59.12;97809.28;114474;1206;103153;-73
2021/04/06 15:43:42;;;;;;;16.10;6.00;;;;;;;1.81;59.09;97802.10;114477;1206;103057;-74
2021/04/06 15:46:13;;;;;;;18.40;6.70;;;;;;;1.83;59.20;97813.35;114419;1205;103082;-76
2021/04/06 15:48:40;;;;;;;19.25;7.05;;;;;;;1.87;59.12;97815.70;114501;1206;103540;-82
2021/04/06 15:51:11;;;;;;;16.85;6.60;;;;;;;1.97;59.14;97808.13;114446;1205;103174;-74
2021/04/06 15:53:41;;;;;;;18.85;7.45;;;;;;;2.07;59.32;97809.30;114429;1206;103217;-74
2021/04/06 15:56:10;;;;;;;18.00;7.10;;;;;;;2.15;59.67;97806.22;114462;1206;103121;-74
2021/04/06 15:58:38;;;;;;;18.90;7.30;;;;;;;2.19;59.47;97805.11;114485;1205;103054;-75
2021/04/06 16:01:05;;;;;;;19.30;7.70;;;;;;;2.17;59.14;97806.97;114478;1206;103086;-74
2021/04/06 16:03:33;;;;;;;22.37;9.17;;;;;;;2.17;59.42;97811.39;114451;1205;103063;-74
2021/04/06 16:06:07;;;;;;;21.30;8.65;;;;;;;2.18;59.35;97820.95;114471;1206;101856;-74
2021/04/06 16:08:36;;;;;;;30.60;12.45;;;;;;;2.15;59.65;97818.50;114482;1206;103210;-74
2021/04/06 16:11:04;;;;;;;28.50;10.90;;;;;;;2.08;59.57;97818.86;114435;1206;103088;-76
2021/04/06 16:13:31;;;;;;;20.90;9.35;;;;;;;2.07;59.56;97821.55;114461;1206;104515;-74
2021/04/06 16:16:03;;;;;;;22.30;8.90;;;;;;;2.02;59.57;97824.45;114455;1206;103245;-75
2021/04/06 16:18:30;;;;;;;24.10;9.20;;;;;;;1.97;59.41;97826.49;114479;1206;103152;-73
2021/04/06 16:20:57;;;;;;;21.15;8.85;;;;;;;1.92;59.66;97831.16;114396;1205;103190;-74
2021/04/06 16:23:24;;;;;;;22.40;9.30;;;;;;;1.84;59.78;97834.23;114390;1206;103099;-74
2021/04/06 16:25:54;;;;;;;21.80;9.17;;;;;;;1.79;59.81;97825.77;114345;1206;103162;-73
2021/04/06 16:28:21;;;;;;;22.30;10.00;;;;;;;1.73;59.39;97826.98;114363;1206;103175;-75
2021/04/06 16:30:50;;;;;;;24.75;10.80;;;;;;;1.72;60.10;97827.91;114404;1205;103158;-76
2021/04/06 16:33:26;;;;;;;26.53;11.73;;;;;;;1.70;59.74;97828.91;114442;1206;103254;-73
2021/04/06 16:35:55;;;;;;;25.13;11.03;;;;;;;1.64;59.65;97825.70;114380;1206;103051;-73
2021/04/06 16:38:25;;;;;;;22.00;9.67;;;;;;;1.58;59.56;97836.55;114353;1206;103475;-74
2021/04/06 16:40:55;;;;;;;24.35;10.40;;;;;;;1.54;59.68;97826.30;114203;1205;103223;-74
2021/04/06 16:43:23;;;;;;;40.30;19.90;;;;;;;1.51;59.87;97832.58;114426;1206;103095;-75
2021/04/06 16:45:53;;;;;;;29.15;12.80;;;;;;;1.49;59.68;97837.89;114421;1206;103155;-71
2021/04/06 16:48:21;;;;;;;26.20;13.00;;;;;;;1.48;59.97;97830.13;114346;1205;103050;-71
2021/04/06 16:50:49;;;;;;;28.40;13.10;;;;;;;1.46;59.87;97827.57;114351;1206;103168;-72
2021/04/06 16:53:21;;;;;;;29.35;13.75;;;;;;;1.44;60.10;97831.22;114284;1206;103130;-69
2021/04/06 16:55:49;;;;;;;31.95;15.45;;;;;;;1.42;59.88;97839.18;114317;1206;103146;-74
2021/04/06 16:58:17;;;;;;;27.35;11.10;;;;;;;1.41;59.74;97839.25;114346;1206;103645;-74
2021/04/06 17:00:44;;;;;;;29.30;12.90;;;;;;;1.34;60.25;97842.20;114326;1206;103602;-71
2021/04/06 17:03:12;;;;;;;28.30;13.00;;;;;;;1.23;59.86;97844.55;114134;1206;103060;-74
2021/04/06 17:05:40;;;;;;;31.35;12.70;;;;;;;1.13;59.81;97838.14;114330;1206;103542;-74
2021/04/06 17:08:07;;;;;;;28.30;11.60;;;;;;;1.08;60.15;97837.55;114425;1206;103121;-74
2021/04/06 17:10:35;;;;;;;26.30;11.70;;;;;;;1.05;59.79;97846.39;114412;1206;103226;-76
2021/04/06 17:13:04;;;;;;;23.05;12.20;;;;;;;0.99;60.20;97842.34;114310;1206;103159;-80
2021/04/06 17:15:32;;;;;;;26.75;13.05;;;;;;;0.92;59.95;97848.00;114327;1205;104811;-75
2021/04/06 17:17:59;;;;;;;26.20;11.90;;;;;;;0.86;59.99;97841.29;114127;1206;103082;-76
2021/04/06 17:20:29;;;;;;;27.20;12.85;;;;;;;0.79;60.10;97843.39;114339;1206;103085;-76
2021/04/06 17:22:56;;;;;;;26.50;11.00;;;;;;;0.68;60.06;97835.25;114455;1206;103132;-77
2021/04/06 17:25:30;;;;;;;25.73;10.90;;;;;;;0.58;60.02;97842.74;114361;1206;103050;-76
2021/04/06 17:27:58;;;;;;;25.20;10.70;;;;;;;0.52;60.65;97850.91;114451;1206;103114;-73
2021/04/06 17:30:31;;;;;;;23.60;11.00;;;;;;;0.51;60.16;97846.59;114436;1206;103181;-73
2021/04/06 17:33:01;;;;;;;25.70;10.50;;;;;;;0.51;60.54;97851.83;114458;1205;103127;-79
2021/04/06 17:35:29;;;;;;;23.80;9.20;;;;;;;0.48;60.49;97850.23;114431;1206;103690;-76
2021/04/06 17:37:57;;;;;;;26.00;9.60;;;;;;;0.44;60.49;97859.16;114416;1206;103085;-77
2021/04/06 17:40:28;;;;;;;24.00;9.75;;;;;;;0.46;60.96;97857.31;114469;1206;103200;-78
2021/04/06 17:42:58;;;;;;;24.05;9.85;;;;;;;0.44;60.47;97856.54;114387;1206;103101;-80
2021/04/06 17:45:29;;;;;;;22.25;10.05;;;;;;;0.43;60.82;97854.84;114628;1206;103056;-79
2021/04/06 17:47:56;;;;;;;28.90;11.60;;;;;;;0.42;60.58;97858.38;114597;1206;103190;-77
2021/04/06 17:50:25;;;;;;;24.10;9.90;;;;;;;0.40;60.53;97861.09;114426;1205;103168;-76
2021/04/06 17:52:54;;;;;;;26.30;10.60;;;;;;;0.37;60.36;97863.86;114466;1206;103500;-78
2021/04/06 17:55:23;;;;;;;29.10;13.30;;;;;;;0.36;61.21;97869.16;114430;1206;103062;-78
2021/04/06 17:57:52;;;;;;;32.10;14.30;;;;;;;0.36;61.02;97874.39;114473;1206;103140;-77
2021/04/06 18:00:29;;;;;;;30.60;14.40;;;;;;;0.37;60.82;97883.93;114456;1206;103121;-78
2021/04/06 18:02:57;;;;;;;37.40;15.95;;;;;;;0.38;60.93;97880.39;114379;1206;103171;-76
2021/04/06 18:05:26;;;;;;;41.60;18.50;;;;;;;0.38;60.98;97894.33;114211;1206;103102;-84
2021/04/06 18:07:55;;;;;;;41.00;17.00;;;;;;;0.38;60.81;97888.23;114087;1206;103063;-73
2021/04/06 18:10:23;;;;;;;39.40;18.35;;;;;;;0.30;60.71;97891.25;114213;1206;103078;-73
2021/04/06 18:12:50;;;;;;;37.10;17.30;;;;;;;0.24;60.80;97896.78;114179;1206;103203;-72
2021/04/06 18:15:19;;;;;;;39.50;18.90;;;;;;;0.18;61.03;97900.55;114178;1206;103179;-73
2021/04/06 18:17:47;;;;;;;36.20;15.90;;;;;;;0.19;60.87;97904.00;114211;1206;103172;-75
2021/04/06 18:20:17;;;;;;;41.90;19.30;;;;;;;0.18;60.97;97907.53;114215;1206;103162;-74
2021/04/06 18:22:45;;;;;;;43.30;18.70;;;;;;;0.18;61.33;97912.77;114298;1206;103155;-75
2021/04/06 18:25:15;;;;;;;40.33;18.97;;;;;;;0.17;61.17;97909.32;114167;1206;103108;-76
2021/04/06 18:27:44;;;;;;;36.77;18.70;;;;;;;0.13;61.19;97908.60;114294;1205;103174;-77
2021/04/06 18:30:14;;;;;;;43.70;22.10;;;;;;;0.14;61.34;97907.69;114375;1206;103088;-72
2021/04/06 18:32:44;;;;;;;50.30;25.20;;;;;;;0.14;60.98;97904.23;114261;1205;103120;-72
2021/04/06 18:35:14;;;;;;;56.60;28.55;;;;;;;0.14;61.39;97918.14;114264;1206;103599;-76
2021/04/06 18:37:44;;;;;;;57.20;28.30;;;;;;;0.12;60.92;97919.16;114208;1206;104396;-74
2021/04/06 18:40:19;;;;;;;56.20;29.30;;;;;;;0.09;61.58;97921.91;114319;1205;103258;-74
2021/04/06 18:42:47;;;;;;;60.10;29.80;;;;;;;0.08;61.05;97920.22;114337;1206;103027;-75
2021/04/06 18:45:15;;;;;;;61.17;30.23;;;;;;;0.07;61.74;97913.30;114342;1206;103075;-74
2021/04/06 18:47:43;;;;;;;51.10;27.60;;;;;;;0.05;61.83;97915.14;114413;1206;103162;-74
2021/04/06 18:50:13;;;;;;;45.90;23.65;;;;;;;0.04;61.63;97911.66;114370;1205;103259;-74
2021/04/06 18:52:43;;;;;;;42.70;22.10;;;;;;;0.03;61.68;97914.36;114224;1206;103651;-73
2021/04/06 18:55:11;;;;;;;41.00;18.30;;;;;;;0.02;61.46;97910.88;114405;1206;104048;-72
2021/04/06 18:57:38;;;;;;;38.80;19.00;;;;;;;0.02;61.89;97917.89;114308;1206;103223;-75
2021/04/06 19:00:07;;;;;;;37.60;17.80;;;;;;;0.03;61.92;97911.75;114214;1206;103146;-72
2021/04/06 19:02:34;;;;;;;30.10;14.10;;;;;;;0.01;61.31;97917.03;114381;1206;103799;-71
2021/04/06 19:05:04;;;;;;;31.80;15.25;;;;;;;-0.05;61.51;97918.19;114360;1205;103265;-72
2021/04/06 19:07:34;;;;;;;32.70;14.15;;;;;;;-0.08;61.57;97922.73;114430;1205;103146;-72
2021/04/06 19:10:01;;;;;;;30.37;14.70;;;;;;;-0.12;61.84;97910.72;114405;1206;103053;-77
2021/04/06 19:12:28;;;;;;;33.80;15.70;;;;;;;-0.18;61.67;97915.31;114414;1206;103495;-77
2021/04/06 19:14:56;;;;;;;37.80;18.80;;;;;;;-0.19;61.35;97905.78;114410;1206;103155;-73
2021/04/06 19:17:23;;;;;;;37.75;17.90;;;;;;;-0.18;61.49;97917.93;114390;1206;103172;-72
2021/04/06 19:19:50;;;;;;;40.45;19.60;;;;;;;-0.19;61.75;97911.01;114418;1206;103107;-73
2021/04/06 19:22:17;;;;;;;41.60;20.20;;;;;;;-0.20;61.77;97906.70;114431;1206;103174;-71
2021/04/06 19:24:44;;;;;;;34.70;18.40;;;;;;;-0.21;61.61;97905.00;114430;1206;103101;-72
2021/04/06 19:27:11;;;;;;;40.70;19.95;;;;;;;-0.21;62.02;97905.00;114385;1206;103117;-71
2021/04/06 19:29:38;;;;;;;38.50;18.95;;;;;;;-0.23;62.04;97904.23;114416;1206;103162;-72
2021/04/06 19:32:05;;;;;;;36.95;18.65;;;;;;;-0.26;62.26;97912.22;114509;1206;103079;-72
2021/04/06 19:34:33;;;;;;;42.20;19.40;;;;;;;-0.28;61.94;97907.99;114437;1206;103197;-72
2021/04/06 19:37:00;;;;;;;38.80;17.90;;;;;;;-0.31;62.05;97906.35;114409;1206;103181;-71
2021/04/06 19:39:27;;;;;;;36.60;18.25;;;;;;;-0.33;62.43;97898.59;114365;1206;103519;-71
2021/04/06 19:41:54;;;;;;;36.65;18.40;;;;;;;-0.33;62.13;97895.13;114485;1206;103159;-72
2021/04/06 19:44:21;;;;;;;40.25;17.50;;;;;;;-0.34;62.44;97896.91;114419;1206;103548;-71
2021/04/06 19:46:48;;;;;;;36.95;17.95;;;;;;;-0.32;61.85;97896.81;114383;1206;103063;-72
2021/04/06 19:49:15;;;;;;;33.77;16.10;;;;;;;-0.33;61.86;97895.13;114379;1205;103203;-71
2021/04/06 19:51:43;;;;;;;37.50;17.55;;;;;;;-0.35;62.30;97899.58;114308;1206;103204;-71
2021/04/06 19:54:09;;;;;;;37.25;15.95;;;;;;;-0.37;62.40;97899.66;114462;1206;103056;-70
2021/04/06 19:56:36;;;;;;;36.00;16.90;;;;;;;-0.40;62.31;97899.80;114350;1205;103098;-71
2021/04/06 19:59:04;;;;;;;36.45;18.85;;;;;;;-0.40;62.35;97897.19;114371;1205;103078;-71
2021/04/06 20:01:32;;;;;;;38.55;17.10;;;;;;;-0.42;61.90;97893.80;114361;1206;103155;-74
2021/04/06 20:03:59;;;;;;;34.20;16.90;;;;;;;-0.42;62.12;97898.19;114446;1205;103047;-71
2021/04/06 20:06:26;;;;;;;35.90;16.97;;;;;;;-0.43;62.34;97906.95;114430;1206;103075;-72
2021/04/06 20:09:00;;;;;;;35.05;16.60;;;;;;;-0.42;62.12;97903.42;114431;1206;103089;-71
2021/04/06 20:11:29;;;;;;;32.80;16.90;;;;;;;-0.42;62.73;97901.64;114522;1205;103204;-71
2021/04/06 20:13:58;;;;;;;37.95;19.75;;;;;;;-0.42;62.09;97900.80;114481;1205;103207;-71
2021/04/06 20:16:26;;;;;;;35.97;17.73;;;;;;;-0.43;62.38;97897.33;114542;1205;103130;-70
2021/04/06 20:18:53;;;;;;;36.40;18.75;;;;;;;-0.42;62.77;97904.25;114448;1206;103165;-71
2021/04/06 20:21:31;;;;;;;35.37;18.10;;;;;;;-0.41;62.42;97895.50;114508;1206;103095;-70
2021/04/06 20:24:07;;;;;;;;;;;;;;;-0.41;63.10;97899.89;114520;1212;102996;-72
2021/04/06 20:26:38;;;;;;;38.70;18.25;;;;;;;-0.48;62.45;97899.30;114424;1205;103159;-71
2021/04/06 20:29:08;;;;;;;33.45;17.70;;;;;;;-0.48;62.54;97899.30;114496;1206;103084;-71
2021/04/06 20:31:36;;;;;;;34.40;18.00;;;;;;;-0.52;62.46;97889.91;114460;1206;103143;-72
2021/04/06 20:34:11;;;;;;;36.10;16.87;;;;;;;-0.52;62.74;97887.30;114497;1205;103092;-70
2021/04/06 20:36:39;;;;;;;35.20;17.25;;;;;;;-0.52;62.02;97889.91;114432;1205;103155;-72
2021/04/06 20:39:07;;;;;;;37.35;17.15;;;;;;;-0.54;62.34;97884.77;114357;1205;103165;-70
2021/04/06 20:41:35;;;;;;;34.50;17.80;;;;;;;-0.51;62.18;97889.00;114492;1206;103089;-72
2021/04/06 20:44:05;;;;;;;35.80;18.85;;;;;;;-0.52;62.28;97884.69;114470;1206;103098;-71
2021/04/06 20:46:33;;;;;;;32.85;18.00;;;;;;;-0.55;62.37;97885.70;114462;1206;103573;-72
2021/04/06 20:49:03;;;;;;;34.20;17.40;;;;;;;-0.54;62.51;97876.94;114465;1205;103088;-70
2021/04/06 20:51:31;;;;;;;36.70;17.60;;;;;;;-0.53;62.29;97877.77;114355;1205;103078;-70
2021/04/06 20:53:58;;;;;;;36.20;18.40;;;;;;;-0.54;62.18;97876.94;114502;1206;103541;-71
2021/04/06 20:56:25;;;;;;;;;;;;;;;-0.52;63.06;97869.02;114447;1205;103111;-71
2021/04/06 20:58:52;;;;;;;34.20;15.95;;;;;;;-0.52;62.60;97871.63;114436;1205;101392;-70
2021/04/06 21:01:19;;;;;;;38.10;18.90;;;;;;;-0.56;62.91;97870.08;114488;1206;103067;-71
2021/04/06 21:03:54;;;;;;;;;;;;;;;-0.58;62.48;97874.52;114367;1213;103152;-71
2021/04/06 21:06:21;;;;;;;37.65;18.55;;;;;;;-0.62;63.07;97871.22;114443;1206;103155;-70
2021/04/06 21:08:51;;;;;;;39.50;17.70;;;;;;;-0.62;62.79;97866.86;114428;1206;103145;-71
2021/04/06 21:11:20;;;;;;;36.20;19.00;;;;;;;-0.63;62.69;97862.55;114501;1206;103056;-71
2021/04/06 21:13:48;;;;;;;39.37;21.27;;;;;;;-0.62;62.58;97868.61;114525;1206;103184;-70
2021/04/06 21:16:16;;;;;;;37.60;18.80;;;;;;;-0.66;62.81;97867.05;114476;1205;103124;-71
2021/04/06 21:18:44;;;;;;;40.80;20.60;;;;;;;-0.70;63.09;97874.20;114520;1206;103163;-72
2021/04/06 21:21:12;;;;;;;;;;;;;;;-0.73;62.35;97868.25;114485;1206;103092;-70
2021/04/06 21:23:39;;;;;;;37.35;19.50;;;;;;;-0.77;62.35;97870.16;114519;1206;103050;-70
2021/04/06 21:26:07;;;;;;;39.80;19.40;;;;;;;-0.80;62.20;97858.08;114487;1206;103120;-71
2021/04/06 21:28:40;;;;;;;36.90;19.30;;;;;;;-0.81;63.09;97866.00;114439;1206;103059;-71
2021/04/06 21:31:12;;;;;;;37.50;18.00;;;;;;;-0.81;62.37;97861.61;114457;1206;103511;-70
2021/04/06 21:33:39;;;;;;;32.70;16.95;;;;;;;-0.82;63.10;97862.55;114385;1206;103085;-70
2021/04/06 21:36:07;;;;;;;35.70;16.10;;;;;;;-0.80;62.45;97867.69;114450;1206;103661;-71
2021/04/06 21:38:34;;;;;;;40.20;17.50;;;;;;;-0.82;62.27;97872.14;114362;1206;103076;-70
2021/04/06 21:41:04;;;;;;;34.10;16.20;;;;;;;-0.85;62.58;97867.05;114498;1206;103050;-70
2021/04/06 21:43:31;;;;;;;32.90;15.60;;;;;;;-0.89;62.23;97874.19;114500;1206;103159;-69
2021/04/06 21:45:59;;;;;;;31.20;14.85;;;;;;;-0.87;62.81;97874.97;114489;1206;103536;-70
2021/04/06 21:48:25;;;;;;;33.50;14.70;;;;;;;-0.87;62.98;97869.75;114429;1205;103043;-71
2021/04/06 21:50:53;;;;;;;31.00;15.30;;;;;;;-0.87;62.92;97869.75;114399;1206;103225;-71
2021/04/06 21:53:21;;;;;;;33.55;15.75;;;;;;;-0.88;63.14;97875.02;114478;1206;103079;-71
2021/04/06 21:55:48;;;;;;;33.25;14.90;;;;;;;-0.90;63.16;97877.72;114500;1206;103114;-71
2021/04/06 21:58:15;;;;;;;30.90;16.00;;;;;;;-0.87;62.99;97876.72;114349;1207;103072;-70
2021/04/06 22:00:43;;;;;;;42.80;21.10;;;;;;;-0.93;62.83;97868.24;114312;1206;103086;-70
2021/04/06 22:03:11;;;;;;;50.40;25.00;;;;;;;-0.97;63.08;97869.30;114376;1206;103206;-69
2021/04/06 22:05:39;;;;;;;55.20;25.80;;;;;;;-1.05;63.04;97871.42;114360;1206;103226;-70
2021/04/06 22:08:07;;;;;;;52.40;26.70;;;;;;;-1.07;62.35;97865.42;114378;1207;103162;-72
2021/04/06 22:10:35;;;;;;;52.20;25.10;;;;;;;-1.08;62.87;97864.56;114389;1206;103200;-70
2021/04/06 22:13:03;;;;;;;54.40;25.55;;;;;;;-1.10;62.97;97857.73;114481;1206;103105;-70
2021/04/06 22:15:32;;;;;;;40.10;19.80;;;;;;;-1.10;62.47;97861.17;114478;1206;103235;-70
2021/04/06 22:18:01;;;;;;;44.60;21.50;;;;;;;-1.09;63.26;97855.04;114378;1206;103204;-70
2021/04/06 22:20:34;;;;;;;46.30;22.20;;;;;;;-1.08;63.31;97854.13;115016;1206;103155;-70
2021/04/06 22:23:05;;;;;;;41.80;20.25;;;;;;;-1.06;62.92;97856.69;114476;1206;103069;-69
2021/04/06 22:25:43;;;;;;;51.67;23.43;;;;;;;-1.06;63.27;97848.85;114479;1206;103110;-70
2021/04/06 22:28:16;;;;;;;41.40;20.10;;;;;;;-1.05;63.17;97853.98;114421;1206;103232;-70
2021/04/06 22:30:50;;;;;;;44.70;23.05;;;;;;;-1.04;63.50;97849.63;114467;1205;103075;-70
2021/04/06 22:33:21;;;;;;;;;;;;;;;-1.07;62.86;97853.20;114537;1213;103175;-71
2021/04/06 22:35:48;;;;;;;39.30;20.10;;;;;;;-1.08;62.79;97848.91;114408;1206;103092;-70
2021/04/06 22:38:17;;;;;;;32.70;16.40;;;;;;;-1.08;62.60;97854.13;114491;1205;103139;-70
2021/04/06 22:40:45;;;;;;;31.30;15.25;;;;;;;-1.10;63.48;97850.73;114466;1206;103149;-70
2021/04/06 22:43:13;;;;;;;32.15;16.55;;;;;;;-1.09;62.67;97841.16;114460;1206;103152;-69
2021/04/06 22:45:40;;;;;;;32.80;15.30;;;;;;;-1.07;62.91;97847.98;114523;1206;103171;-71
2021/04/06 22:48:08;;;;;;;31.25;15.65;;;;;;;-1.09;63.33;97838.55;114393;1206;103163;-71
2021/04/06 22:50:44;;;;;;;35.10;16.80;;;;;;;-1.10;62.78;97835.08;114536;1206;103092;-72
2021/04/06 22:53:12;;;;;;;32.55;17.10;;;;;;;-1.09;63.61;97839.38;114442;1206;103072;-69
2021/04/06 22:55:46;;;;;;;39.60;18.70;;;;;;;-1.12;62.64;97836.91;115463;1206;101008;-70
2021/04/06 22:58:16;;;;;;;38.60;18.45;;;;;;;-1.14;63.40;97837.91;114373;1206;103536;-70
2021/04/06 23:01:08;;;;;;;34.90;17.70;;;;;;;-1.17;62.50;97832.82;114361;1206;103187;-70
2021/04/06 23:03:36;;;;;;;38.80;19.80;;;;;;;-1.20;63.12;97833.78;114364;1205;103152;-71
2021/04/06 23:06:05;;;;;;;42.80;19.50;;;;;;;-1.23;63.15;97821.73;114365;1205;103271;-70
2021/04/06 23:08:34;;;;;;;36.57;18.30;;;;;;;-1.24;63.05;97822.66;115811;1205;100930;-71
2021/04/06 23:11:04;;;;;;;39.53;18.27;;;;;;;-1.26;63.31;97824.48;114658;1206;103057;-70
2021/04/06 23:13:36;;;;;;;35.00;16.50;;;;;;;-1.27;62.90;97825.39;114499;1205;103079;-73
2021/04/06 23:16:04;;;;;;;39.20;19.85;;;;;;;-1.29;62.95;97824.61;114473;1205;103095;-71
2021/04/06 23:18:32;;;;;;;45.70;21.60;;;;;;;-1.32;63.44;97823.92;114456;1206;103197;-70
2021/04/06 23:20:59;;;;;;;39.60;20.50;;;;;;;-1.36;62.86;97824.05;114486;1206;103100;-69
2021/04/06 23:23:26;;;;;;;44.50;21.50;;;;;;;-1.41;62.66;97817.32;114488;1206;103076;-70
2021/04/06 23:25:53;;;;;;;40.30;20.70;;;;;;;-1.44;63.57;97817.48;114475;1206;103295;-72
2021/04/06 23:28:21;;;;;;;37.70;18.80;;;;;;;-1.46;63.40;97820.14;114528;1206;103028;-69
2021/04/06 23:30:48;;;;;;;38.90;19.40;;;;;;;-1.45;63.61;97821.02;114521;1206;103146;-71
2021/04/06 23:33:19;;;;;;;39.30;19.20;;;;;;;-1.44;63.35;97814.88;114489;1206;103242;-71
2021/04/06 23:35:49;;;;;;;37.10;19.45;;;;;;;-1.44;63.79;97813.10;114499;1204;103072;-72
2021/04/06 23:38:23;;;;;;;41.50;19.80;;;;;;;-1.43;63.46;97817.41;114491;1206;103085;-72
2021/04/06 23:40:51;;;;;;;36.35;17.90;;;;;;;-1.40;63.70;97816.41;114434;1206;103187;-72
2021/04/06 23:43:21;;;;;;;38.85;17.90;;;;;;;-1.38;63.24;97818.05;114473;1206;103146;-71
2021/04/06 23:45:48;;;;;;;39.50;18.50;;;;;;;-1.36;63.62;97824.05;114464;1205;103095;-70
2021/04/06 23:48:15;;;;;;;39.85;19.25;;;;;;;-1.36;63.84;97818.83;114429;1206;103101;-71
2021/04/06 23:50:42;;;;;;;37.80;18.80;;;;;;;-1.37;63.90;97814.53;114491;1206;103081;-72
2021/04/06 23:53:09;;;;;;;36.50;18.60;;;;;;;-1.39;63.01;97818.97;114518;1206;103044;-72
2021/04/06 23:55:36;;;;;;;35.03;17.85;;;;;;;-1.43;63.63;97806.97;114413;1206;103203;-71
2021/04/06 23:58:03;;;;;;;32.30;16.10;;;;;;;-1.43;63.01;97813.97;114447;1206;103043;-71
